Terminal Aerodrome Forecast
Issued by NWS

Home | Current Version | Previous Version | Text Only | Print | Product List | Glossary On
Versions: 1 2 3 4 5 6 7 8 9 10 11 12 13 14
000
FTUS43 KMQT 180520
TAFIWD
TAF
KIWD 180520Z 1806/1906 27007KT P6SM FEW200
     FM181500 14011KT 3SM -SN OVC045
     FM181800 15015G23KT 4SM -SN BLSN OVC050
     FM182000 18013KT 4SM -SN OVC025
     FM182200 19009KT 3SM -SN OVC015
     FM190100 31007KT 3SM -SN OVC015
     FM190400 35007KT 3SM -SN OVC010=

USA.gov is the U.S. government's official web portal to all federal, state and local government web resources and services.